createdAt,value
2022-10-11T00:02:18.665Z,13.60
2022-10-11T00:05:04.410Z,13.60
2022-10-11T00:07:50.048Z,13.60
2022-10-11T00:10:35.491Z,13.60
2022-10-11T00:13:20.991Z,13.60
2022-10-11T00:16:11.803Z,13.60
2022-10-11T00:18:57.604Z,13.50
2022-10-11T00:21:43.176Z,13.50
2022-10-11T00:24:28.551Z,13.40
2022-10-11T00:27:14.124Z,13.40
2022-10-11T00:29:59.660Z,13.40
2022-10-11T00:32:45.396Z,13.30
2022-10-11T00:35:31.104Z,13.30
2022-10-11T00:38:16.752Z,13.40
2022-10-11T00:41:02.556Z,13.30
2022-10-11T00:43:48.048Z,13.30
2022-10-11T00:46:33.639Z,13.30
2022-10-11T00:49:44.112Z,13.30
2022-10-11T00:52:44.198Z,13.30
2022-10-11T00:55:34.580Z,13.20
2022-10-11T00:58:22.657Z,13.20
2022-10-11T01:01:08.640Z,13.20
2022-10-11T01:03:58.018Z,13.20
2022-10-11T01:06:44.796Z,13.20
2022-10-11T01:09:31.592Z,13.20
2022-10-11T01:12:24.761Z,13.30
2022-10-11T01:15:18.582Z,13.30
2022-10-11T01:18:11.551Z,13.20
2022-10-11T01:21:17.513Z,13.20
2022-10-11T01:24:22.296Z,13.20
2022-10-11T01:27:45.036Z,13.20
2022-10-11T01:30:33.165Z,13.10
2022-10-11T01:33:24.590Z,13.10
2022-10-11T01:36:16.320Z,13.10
2022-10-11T01:39:16.026Z,13.10
2022-10-11T01:42:05.307Z,13.10
2022-10-11T01:44:51.881Z,13.10
2022-10-11T01:47:39.141Z,13.10
2022-10-11T01:50:43.951Z,13.10
2022-10-11T01:53:38.680Z,13.00
2022-10-11T01:56:49.075Z,13.00
2022-10-11T01:59:49.624Z,13.00
2022-10-11T02:03:02.207Z,13.00
2022-10-11T02:05:56.951Z,13.00
2022-10-11T02:09:09.358Z,13.00
2022-10-11T02:11:58.362Z,12.90
2022-10-11T02:14:48.463Z,12.90
2022-10-11T02:17:39.236Z,12.90
2022-10-11T02:20:27.300Z,12.90
2022-10-11T02:23:17.024Z,12.90
2022-10-11T02:26:06.527Z,12.90
2022-10-11T02:28:56.762Z,12.90
2022-10-11T02:31:43.852Z,12.90
2022-10-11T02:34:41.341Z,12.90
2022-10-11T02:37:47.672Z,12.90
2022-10-11T02:40:36.207Z,12.90
2022-10-11T02:43:36.567Z,12.80
2022-10-11T02:46:22.696Z,12.80
2022-10-11T02:49:08.627Z,12.80
2022-10-11T02:51:56.535Z,12.70
2022-10-11T02:54:42.349Z,12.70
2022-10-11T02:57:27.852Z,12.60
2022-10-11T03:00:14.267Z,12.50
2022-10-11T03:02:59.735Z,12.60
2022-10-11T03:05:45.461Z,12.60
2022-10-11T03:08:31.483Z,12.50
2022-10-11T03:11:17.312Z,12.50
2022-10-11T03:14:02.863Z,12.40
2022-10-11T03:16:48.723Z,12.40
2022-10-11T03:19:34.412Z,12.40
2022-10-11T03:22:19.935Z,12.40
2022-10-11T03:25:05.699Z,12.50
2022-10-11T03:27:51.121Z,12.50
2022-10-11T03:30:36.612Z,12.50
2022-10-11T03:33:22.413Z,12.50
2022-10-11T03:36:09.184Z,12.50
2022-10-11T03:38:54.804Z,12.50
2022-10-11T03:41:40.353Z,12.50
2022-10-11T03:44:25.936Z,12.50
2022-10-11T03:47:12.791Z,12.60
2022-10-11T03:49:58.354Z,12.60
2022-10-11T03:52:43.984Z,12.50
2022-10-11T03:55:29.704Z,12.60
2022-10-11T03:58:15.104Z,12.40
2022-10-11T04:01:00.587Z,12.50
2022-10-11T04:03:45.948Z,12.40
2022-10-11T04:06:32.003Z,12.40
2022-10-11T04:09:17.445Z,12.50
2022-10-11T04:12:02.945Z,12.50
2022-10-11T04:14:48.727Z,12.40
2022-10-11T04:17:34.161Z,12.40
2022-10-11T04:20:19.792Z,12.40
2022-10-11T04:23:05.368Z,12.40
2022-10-11T04:25:50.813Z,12.40
2022-10-11T04:28:36.668Z,12.30
2022-10-11T04:31:22.515Z,12.30
2022-10-11T04:34:08.295Z,12.30
2022-10-11T04:36:53.969Z,12.30
2022-10-11T04:39:39.590Z,12.20
2022-10-11T04:42:25.137Z,12.20
2022-10-11T04:45:10.691Z,12.20
2022-10-11T04:47:56.233Z,12.10
2022-10-11T04:50:41.721Z,12.10
2022-10-11T04:53:27.160Z,12.20
2022-10-11T04:56:14.889Z,12.10
2022-10-11T04:59:00.556Z,12.00
2022-10-11T05:01:46.104Z,12.00
2022-10-11T05:04:31.629Z,12.00
2022-10-11T05:07:17.228Z,12.00
2022-10-11T05:10:02.917Z,12.00
2022-10-11T05:12:48.562Z,12.00
2022-10-11T05:15:34.503Z,11.90
2022-10-11T05:18:20.711Z,11.90
2022-10-11T05:21:19.663Z,11.90
2022-10-11T05:24:05.759Z,11.80
2022-10-11T05:26:51.137Z,11.80
2022-10-11T05:29:36.566Z,11.80
2022-10-11T05:32:24.576Z,11.70
2022-10-11T05:35:12.101Z,11.60
2022-10-11T05:37:57.552Z,11.50
2022-10-11T05:40:43.309Z,11.60
2022-10-11T05:43:30.779Z,11.50
2022-10-11T05:46:16.651Z,11.60
2022-10-11T05:49:02.304Z,11.50
2022-10-11T05:51:47.705Z,11.50
2022-10-11T05:54:33.278Z,11.50
2022-10-11T05:57:18.697Z,11.50
2022-10-11T06:00:05.650Z,11.50
2022-10-11T06:02:57.710Z,11.40
2022-10-11T06:05:43.755Z,11.40
2022-10-11T06:08:30.397Z,11.40
2022-10-11T06:11:22.362Z,11.30
2022-10-11T06:14:09.588Z,11.30
2022-10-11T06:16:55.333Z,11.40
2022-10-11T06:19:40.685Z,11.40
2022-10-11T06:22:26.780Z,11.40
2022-10-11T06:25:12.648Z,11.40
2022-10-11T06:27:58.072Z,11.40
2022-10-11T06:30:43.624Z,11.50
2022-10-11T06:33:28.878Z,11.50
2022-10-11T06:36:15.670Z,11.40
2022-10-11T06:39:01.593Z,11.40
2022-10-11T06:41:47.268Z,11.50
2022-10-11T06:44:32.833Z,11.60
2022-10-11T06:47:18.384Z,11.70
2022-10-11T06:50:05.516Z,11.70
2022-10-11T06:52:51.297Z,11.60
2022-10-11T06:55:36.697Z,11.60
2022-10-11T06:58:22.244Z,11.60
2022-10-11T07:01:11.567Z,11.70
2022-10-11T07:03:58.860Z,11.60
2022-10-11T07:06:44.592Z,11.60
2022-10-11T07:09:30.902Z,11.60
2022-10-11T07:12:17.070Z,11.50
2022-10-11T07:15:02.677Z,11.50
2022-10-11T07:17:48.206Z,11.50
2022-10-11T07:20:33.683Z,11.60
2022-10-11T07:23:19.321Z,11.60
2022-10-11T07:26:06.010Z,11.60
2022-10-11T07:28:52.071Z,11.70
2022-10-11T07:31:42.228Z,11.80
2022-10-11T07:34:27.911Z,11.90
2022-10-11T07:37:13.623Z,12.00
2022-10-11T07:39:59.400Z,12.10
2022-10-11T07:42:44.812Z,12.10
2022-10-11T07:45:30.381Z,12.20
2022-10-11T07:48:15.959Z,12.30
2022-10-11T07:51:13.940Z,12.30
2022-10-11T07:54:02.325Z,12.40
2022-10-11T07:56:51.778Z,12.40
2022-10-11T07:59:37.286Z,12.50
2022-10-11T08:02:22.829Z,12.60
2022-10-11T08:05:08.753Z,12.70
2022-10-11T08:07:54.398Z,12.90
2022-10-11T08:10:40.114Z,13.00
2022-10-11T08:13:25.843Z,13.10
2022-10-11T08:16:12.682Z,13.20
2022-10-11T08:18:58.388Z,13.30
2022-10-11T08:21:44.070Z,13.30
2022-10-11T08:24:29.663Z,13.40
2022-10-11T08:27:16.660Z,13.40
2022-10-11T08:30:02.178Z,13.50
2022-10-11T08:32:47.646Z,13.50
2022-10-11T08:35:33.011Z,13.60
2022-10-11T08:38:19.061Z,13.70
2022-10-11T08:41:25.772Z,13.90
2022-10-11T08:44:16.852Z,14.20
2022-10-11T08:47:25.391Z,14.30
2022-10-11T08:50:22.523Z,14.40
2022-10-11T08:53:32.281Z,14.70
2022-10-11T08:56:18.977Z,14.80
2022-10-11T08:59:13.045Z,14.90
2022-10-11T09:02:12.399Z,15.00
2022-10-11T09:04:58.912Z,15.10
2022-10-11T09:08:01.588Z,15.10
2022-10-11T09:11:14.165Z,15.20
2022-10-11T09:14:07.363Z,15.30
2022-10-11T09:17:05.758Z,15.30
2022-10-11T09:20:23.555Z,15.40
2022-10-11T09:23:27.640Z,15.60
2022-10-11T09:26:25.591Z,15.70
2022-10-11T09:29:25.636Z,15.80
2022-10-11T09:32:17.525Z,15.90
2022-10-11T09:35:12.948Z,15.90
2022-10-11T09:38:04.247Z,15.90
2022-10-11T09:41:27.278Z,16.10
2022-10-11T09:44:25.245Z,16.20
2022-10-11T09:47:19.972Z,16.30
2022-10-11T09:50:15.285Z,16.40
2022-10-11T09:53:04.867Z,16.50
2022-10-11T09:56:02.050Z,16.60
2022-10-11T09:58:48.359Z,16.60
2022-10-11T10:01:34.508Z,16.60
2022-10-11T10:04:20.068Z,16.70
2022-10-11T10:07:15.178Z,16.70
2022-10-11T10:10:27.000Z,16.70
2022-10-11T10:13:26.838Z,16.70
2022-10-11T10:16:30.841Z,16.80
2022-10-11T10:19:21.443Z,16.90
2022-10-11T10:22:15.372Z,17.00
2022-10-11T10:25:07.269Z,17.10
2022-10-11T10:28:01.642Z,17.20
2022-10-11T10:30:56.380Z,17.20
2022-10-11T10:33:43.295Z,17.30
2022-10-11T10:36:34.938Z,17.20
2022-10-11T10:39:20.387Z,17.20
2022-10-11T10:42:15.676Z,17.20
2022-10-11T10:45:01.705Z,17.20
2022-10-11T10:48:22.969Z,17.10
2022-10-11T10:51:32.899Z,17.10
2022-10-11T10:54:55.800Z,17.10
2022-10-11T10:58:00.837Z,17.10
2022-10-11T11:00:52.343Z,17.10
2022-10-11T11:03:52.852Z,17.10
2022-10-11T11:06:51.969Z,17.10
2022-10-11T11:09:45.361Z,17.10
2022-10-11T11:12:47.589Z,17.20
2022-10-11T11:15:47.953Z,17.30
2022-10-11T11:19:01.794Z,17.40
2022-10-11T11:22:10.039Z,17.50
2022-10-11T11:25:04.466Z,17.60
2022-10-11T11:28:03.541Z,17.70
2022-10-11T11:30:55.355Z,17.80
2022-10-11T11:34:06.733Z,17.90
2022-10-11T11:36:55.285Z,17.90
2022-10-11T11:39:54.174Z,17.90
2022-10-11T11:42:46.329Z,18.00
2022-10-11T11:45:48.450Z,18.10
2022-10-11T11:48:34.124Z,18.20
2022-10-11T11:51:38.513Z,18.40
2022-10-11T11:54:36.347Z,18.50
2022-10-11T11:57:34.258Z,18.60
2022-10-11T12:00:32.034Z,18.70
2022-10-11T12:03:41.868Z,18.70
2022-10-11T12:06:33.426Z,18.80
2022-10-11T12:09:19.431Z,18.90
2022-10-11T12:12:08.231Z,19.10
2022-10-11T12:15:02.986Z,19.30
2022-10-11T12:17:57.849Z,19.40
2022-10-11T12:20:44.448Z,19.60
2022-10-11T12:23:30.335Z,19.70
2022-10-11T12:26:28.147Z,19.90
2022-10-11T12:29:40.533Z,20.00
2022-10-11T12:32:35.046Z,20.10
2022-10-11T12:35:33.480Z,20.30
2022-10-11T12:38:25.750Z,20.40
2022-10-11T12:41:13.340Z,20.50
2022-10-11T12:44:28.906Z,20.50
2022-10-11T12:47:36.750Z,20.60
2022-10-11T12:50:32.813Z,20.70
2022-10-11T12:53:39.698Z,20.90
2022-10-11T12:56:54.676Z,21.00
2022-10-11T12:59:45.365Z,21.20
2022-10-11T13:02:42.470Z,21.30
2022-10-11T13:05:47.737Z,21.50
2022-10-11T13:08:39.886Z,21.60
2022-10-11T13:11:32.227Z,21.80
2022-10-11T13:14:21.592Z,21.90
2022-10-11T13:17:24.655Z,21.90
2022-10-11T13:20:16.249Z,22.10
2022-10-11T13:23:01.727Z,22.20
2022-10-11T13:25:47.437Z,22.30
2022-10-11T13:28:36.475Z,22.40
2022-10-11T13:31:25.205Z,21.80
2022-10-11T13:34:12.666Z,22.70
2022-10-11T13:36:59.119Z,22.70
2022-10-11T13:39:45.764Z,22.70
2022-10-11T13:42:32.859Z,22.70
2022-10-11T13:45:24.268Z,22.70
2022-10-11T13:48:15.662Z,22.80
2022-10-11T13:51:12.929Z,22.80
2022-10-11T13:54:13.162Z,22.80
2022-10-11T13:57:04.181Z,22.80
2022-10-11T13:59:50.232Z,22.90
2022-10-11T14:02:35.899Z,23.00
2022-10-11T14:05:29.811Z,23.10
2022-10-11T14:08:24.548Z,23.00
2022-10-11T14:11:12.078Z,23.00
2022-10-11T14:13:57.630Z,23.00
2022-10-11T14:17:05.681Z,22.90
2022-10-11T14:20:15.544Z,22.90
2022-10-11T14:23:01.204Z,22.80
2022-10-11T14:25:46.703Z,22.80
2022-10-11T14:28:32.243Z,22.80
2022-10-11T14:31:17.709Z,22.80
2022-10-11T14:34:04.298Z,22.80
2022-10-11T14:36:50.795Z,22.80
2022-10-11T14:39:36.899Z,22.80
2022-10-11T14:42:22.372Z,22.70
2022-10-11T14:45:08.235Z,22.70
2022-10-11T14:47:55.405Z,22.60
2022-10-11T14:50:49.197Z,22.60
2022-10-11T14:53:38.716Z,22.60
2022-10-11T14:56:26.416Z,22.60
2022-10-11T14:59:17.646Z,22.60
2022-10-11T15:02:05.583Z,22.50
2022-10-11T15:04:51.517Z,22.60
2022-10-11T15:07:37.059Z,22.50
2022-10-11T15:10:38.855Z,22.50
2022-10-11T15:13:24.302Z,22.50
2022-10-11T15:16:12.824Z,22.40
2022-10-11T15:18:58.399Z,22.40
2022-10-11T15:21:44.641Z,22.30
2022-10-11T15:24:30.039Z,22.30
2022-10-11T15:27:17.415Z,22.30
2022-10-11T15:30:06.921Z,22.20
2022-10-11T15:32:53.169Z,22.20
2022-10-11T15:35:38.478Z,22.10
2022-10-11T15:38:25.688Z,22.10
2022-10-11T15:41:16.079Z,22.10
2022-10-11T15:44:01.813Z,22.00
2022-10-11T15:46:47.268Z,21.90
2022-10-11T15:49:32.848Z,21.80
2022-10-11T15:52:18.219Z,21.70
2022-10-11T15:55:03.993Z,21.70
2022-10-11T15:57:49.752Z,21.70
2022-10-11T16:00:35.218Z,21.60
2022-10-11T16:03:22.936Z,21.50
2022-10-11T16:06:09.589Z,21.40
2022-10-11T16:08:55.373Z,21.30
2022-10-11T16:11:40.818Z,21.20
2022-10-11T16:14:26.193Z,21.10
2022-10-11T16:17:11.643Z,21.00
2022-10-11T16:19:57.648Z,20.90
2022-10-11T16:22:43.145Z,20.70
2022-10-11T16:25:28.696Z,20.60
2022-10-11T16:28:14.528Z,20.50
2022-10-11T16:31:00.293Z,20.30
2022-10-11T16:33:46.504Z,20.10
2022-10-11T16:36:32.471Z,20.00
2022-10-11T16:39:19.763Z,19.80
2022-10-11T16:42:05.872Z,19.80
2022-10-11T16:44:51.829Z,19.50
2022-10-11T16:47:37.748Z,19.40
2022-10-11T16:50:23.425Z,19.30
2022-10-11T16:53:08.931Z,19.10
2022-10-11T16:55:54.448Z,19.10
2022-10-11T16:58:39.969Z,19.00
2022-10-11T17:01:25.916Z,19.00
2022-10-11T17:04:11.773Z,18.90
2022-10-11T17:06:58.269Z,18.90
2022-10-11T17:09:45.437Z,18.80
2022-10-11T17:12:32.185Z,18.70
2022-10-11T17:15:17.839Z,18.70
2022-10-11T17:18:03.899Z,18.60
2022-10-11T17:20:49.783Z,18.60
2022-10-11T17:23:36.208Z,18.60
2022-10-11T17:26:26.549Z,18.50
2022-10-11T17:29:14.879Z,18.40
2022-10-11T17:32:00.546Z,18.40
2022-10-11T17:34:46.369Z,18.40
2022-10-11T17:37:31.938Z,18.30
2022-10-11T17:40:17.744Z,18.20
2022-10-11T17:43:04.109Z,18.10
2022-10-11T17:46:01.367Z,17.90
2022-10-11T17:48:47.150Z,17.90
2022-10-11T17:51:33.694Z,17.90
2022-10-11T17:54:19.675Z,17.90
2022-10-11T17:57:05.048Z,17.80
2022-10-11T17:59:50.856Z,17.70
2022-10-11T18:02:38.575Z,17.60
2022-10-11T18:05:24.046Z,17.50
2022-10-11T18:08:10.600Z,17.50
2022-10-11T18:10:56.158Z,17.50
2022-10-11T18:13:46.008Z,17.40
2022-10-11T18:16:32.604Z,17.50
2022-10-11T18:19:18.509Z,17.30
2022-10-11T18:22:07.009Z,17.20
2022-10-11T18:24:52.901Z,17.20
2022-10-11T18:27:38.439Z,17.10
2022-10-11T18:30:23.896Z,17.10
2022-10-11T18:33:09.887Z,17.10
2022-10-11T18:36:02.418Z,16.90
2022-10-11T18:38:49.381Z,16.70
2022-10-11T18:41:36.171Z,16.60
2022-10-11T18:44:22.017Z,16.70
2022-10-11T18:47:07.937Z,16.60
2022-10-11T18:49:53.446Z,16.50
2022-10-11T18:52:42.435Z,16.40
2022-10-11T18:55:29.917Z,16.50
2022-10-11T18:58:15.741Z,16.50
2022-10-11T19:01:18.285Z,16.50
2022-10-11T19:04:06.093Z,16.50
2022-10-11T19:06:53.339Z,16.40
2022-10-11T19:09:38.801Z,16.30
2022-10-11T19:12:24.547Z,16.30
2022-10-11T19:15:11.478Z,16.20
2022-10-11T19:17:56.965Z,16.30
2022-10-11T19:20:42.466Z,16.20
2022-10-11T19:23:31.179Z,16.30
2022-10-11T19:26:23.498Z,16.20
2022-10-11T19:29:20.586Z,16.20
2022-10-11T19:32:06.414Z,16.10
2022-10-11T19:34:52.105Z,16.10
2022-10-11T19:37:37.606Z,16.20
2022-10-11T19:40:23.078Z,16.20
2022-10-11T19:43:08.677Z,16.10
2022-10-11T19:46:05.112Z,16.00
2022-10-11T19:48:51.694Z,16.00
2022-10-11T19:51:38.231Z,16.00
2022-10-11T19:54:24.235Z,16.00
2022-10-11T19:57:10.008Z,15.90
2022-10-11T19:59:55.416Z,15.80
2022-10-11T20:02:40.808Z,15.70
2022-10-11T20:05:26.344Z,15.70
2022-10-11T20:08:11.937Z,15.70
2022-10-11T20:11:03.842Z,15.80
2022-10-11T20:13:52.003Z,15.70
2022-10-11T20:16:37.453Z,15.60
2022-10-11T20:19:29.283Z,15.60
2022-10-11T20:22:16.096Z,15.60
2022-10-11T20:25:01.642Z,15.50
2022-10-11T20:27:47.366Z,15.30
2022-10-11T20:30:33.167Z,15.20
2022-10-11T20:33:18.909Z,15.00
2022-10-11T20:36:07.891Z,14.90
2022-10-11T20:38:53.708Z,14.70
2022-10-11T20:41:43.035Z,14.60
2022-10-11T20:44:31.628Z,14.70
2022-10-11T20:47:19.566Z,14.70
2022-10-11T20:50:05.594Z,14.60
2022-10-11T20:52:50.976Z,14.40
2022-10-11T20:55:36.724Z,14.30
2022-10-11T20:58:22.713Z,14.30
2022-10-11T21:01:15.050Z,14.20
2022-10-11T21:04:01.697Z,14.20
2022-10-11T21:06:50.189Z,14.30
2022-10-11T21:09:36.335Z,14.30
2022-10-11T21:12:22.722Z,14.30
2022-10-11T21:15:08.613Z,14.20
2022-10-11T21:17:54.437Z,14.20
2022-10-11T21:20:41.880Z,14.00
2022-10-11T21:23:27.672Z,14.00
2022-10-11T21:26:14.634Z,14.00
2022-10-11T21:29:00.081Z,14.10
2022-10-11T21:31:45.693Z,14.20
2022-10-11T21:34:31.318Z,14.00
2022-10-11T21:37:16.856Z,14.00
2022-10-11T21:40:02.352Z,13.90
2022-10-11T21:42:47.866Z,13.80
2022-10-11T21:45:37.964Z,13.70
2022-10-11T21:48:23.579Z,13.70
2022-10-11T21:51:18.219Z,13.60
2022-10-11T21:54:03.630Z,13.60
2022-10-11T21:56:49.485Z,13.60
2022-10-11T21:59:35.109Z,13.70
2022-10-11T22:02:20.610Z,13.60
2022-10-11T22:05:06.040Z,13.60
2022-10-11T22:07:51.480Z,13.50
2022-10-11T22:10:36.953Z,13.50
2022-10-11T22:13:22.848Z,13.60
2022-10-11T22:16:11.498Z,13.50
2022-10-11T22:18:57.415Z,13.40
2022-10-11T22:21:45.185Z,13.40
2022-10-11T22:24:31.633Z,13.30
2022-10-11T22:27:17.098Z,13.30
2022-10-11T22:30:02.785Z,13.40
2022-10-11T22:32:50.352Z,13.30
2022-10-11T22:35:37.566Z,13.40
2022-10-11T22:38:24.226Z,13.30
2022-10-11T22:41:10.730Z,13.30
2022-10-11T22:43:56.431Z,13.30
2022-10-11T22:46:42.220Z,13.30
2022-10-11T22:49:27.602Z,13.20
2022-10-11T22:52:13.223Z,13.20
2022-10-11T22:54:58.622Z,13.20
2022-10-11T22:57:44.133Z,13.20
2022-10-11T23:00:29.675Z,13.10
2022-10-11T23:03:17.282Z,13.00
2022-10-11T23:06:02.863Z,13.00
2022-10-11T23:08:49.412Z,13.10
2022-10-11T23:11:35.109Z,13.00
2022-10-11T23:14:20.574Z,12.90
2022-10-11T23:17:05.956Z,12.90
2022-10-11T23:19:52.686Z,12.80
2022-10-11T23:22:38.531Z,12.90
2022-10-11T23:25:23.901Z,12.80
2022-10-11T23:28:09.527Z,12.70
2022-10-11T23:30:54.977Z,12.60
2022-10-11T23:33:40.918Z,12.70
2022-10-11T23:36:26.610Z,12.70
2022-10-11T23:39:12.967Z,12.70
2022-10-11T23:41:58.598Z,12.60
2022-10-11T23:44:44.125Z,12.60
2022-10-11T23:47:30.060Z,12.60
2022-10-11T23:50:16.169Z,12.40
2022-10-11T23:53:01.838Z,12.50
2022-10-11T23:55:47.414Z,12.50
2022-10-11T23:58:33.198Z,12.50
